^^
Saratoga-Weather Station Historical Data
Daily Summary for January 17, 2022 Units:  Metric    English   Both
Daily Weekly Monthly Yearly Custom
  High: Low: Average:
Temperature: 4.4 °C 0.3 °C 2.4 °C
Dew Point: 3.5 °C -0.4 °C 1.7 °C
Humidity: 96% 93% 95%
Wind Speed: 16.3km/h 0km/h 3.9km/h
Wind Gust: 20.9km/h - -
Wind- - West
Pressure: 1037.6 hPa 1033.5 hPa -
Precipitation: 0.2 mm    
Historical Graphs
 
 
Tabular Data for January 17, 2022
Time Temperature Dew Point Pressure Wind Wind Speed Wind Gust Humidity Rainfall Rate (Hourly) solar
00:00 0.3 °C -0.4 °C 1033.5 hPa Calm     95% 0.0 mm 0 W/m2
00:05 0.3 °C -0.4 °C 1033.5 hPa WSW 3.2 km/h 6.4 km/h 95% 0.0 mm 0 W/m2
00:10 0.3 °C -0.4 °C 1033.9 hPa Calm   1.6 km/h 95% 0.0 mm 0 W/m2
00:15 0.4 °C -0.3 °C 1033.9 hPa West 1.4 km/h 6.4 km/h 95% 0.0 mm 0 W/m2
00:20 0.4 °C -0.3 °C 1033.5 hPa WSW 1.4 km/h 1.6 km/h 95% 0.0 mm 0 W/m2
00:26 0.4 °C -0.3 °C 1033.5 hPa Calm   3.2 km/h 95% 0.0 mm 0 W/m2
00:31 0.4 °C -0.3 °C 1033.5 hPa North 3.2 km/h 4.8 km/h 95% 0.0 mm 0 W/m2
00:36 0.4 °C -0.3 °C 1033.5 hPa North 1.4 km/h 1.6 km/h 95% 0.0 mm 0 W/m2
00:41 0.4 °C -0.3 °C 1033.9 hPa Calm   3.2 km/h 95% 0.0 mm 0 W/m2
00:46 0.4 °C -0.3 °C 1033.5 hPa Calm     95% 0.0 mm 0 W/m2
00:51 0.4 °C -0.3 °C 1033.9 hPa Calm     95% 0.0 mm 0 W/m2
00:56 0.4 °C -0.3 °C 1033.9 hPa WSW 3.2 km/h 4.8 km/h 95% 0.0 mm 0 W/m2
01:01 0.4 °C -0.3 °C 1033.9 hPa Calm     95% 0.0 mm 0 W/m2
01:06 0.4 °C -0.3 °C 1033.5 hPa SSW 1.4 km/h 8 km/h 95% 0.0 mm 0 W/m2
01:11 0.4 °C -0.3 °C 1033.5 hPa Calm     95% 0.0 mm 0 W/m2
01:16 0.4 °C -0.3 °C 1033.5 hPa Calm     95% 0.0 mm 0 W/m2
01:21 0.5 °C -0.2 °C 1033.5 hPa Calm     95% 0.0 mm 0 W/m2
01:26 0.4 °C -0.3 °C 1033.5 hPa Calm   1.6 km/h 95% 0.0 mm 0 W/m2
01:31 0.4 °C -0.3 °C 1033.5 hPa Calm   1.6 km/h 95% 0.0 mm 0 W/m2
01:36 0.5 °C -0.2 °C 1033.5 hPa Calm   1.6 km/h 95% 0.0 mm 0 W/m2
01:41 0.5 °C -0.2 °C 1033.9 hPa Calm   3.2 km/h 95% 0.2 mm 0 W/m2
01:46 0.6 °C 0 °C 1033.5 hPa Calm   1.6 km/h 96% 0.2 mm 0 W/m2
01:51 0.6 °C 0 °C 1033.9 hPa ENE 1.4 km/h 4.8 km/h 96% 0.2 mm 0 W/m2
01:56 0.6 °C 0 °C 1033.5 hPa Calm   3.2 km/h 96% 0.2 mm 0 W/m2
02:01 0.6 °C 0 °C 1033.5 hPa NNW 1.4 km/h 3.2 km/h 96% 0.2 mm 0 W/m2
02:06 0.6 °C 0 °C 1033.9 hPa NW 3.2 km/h 4.8 km/h 96% 0.2 mm 0 W/m2
02:11 0.6 °C 0 °C 1033.9 hPa Calm     96% 0.2 mm 0 W/m2
02:16 0.6 °C 0 °C 1033.9 hPa Calm   3.2 km/h 96% 0.2 mm 0 W/m2
02:21 0.6 °C 0 °C 1033.9 hPa West 1.4 km/h 3.2 km/h 96% 0.2 mm 0 W/m2
02:26 0.6 °C 0 °C 1033.9 hPa Calm   1.6 km/h 96% 0.2 mm 0 W/m2
02:31 0.6 °C 0 °C 1033.9 hPa Calm   1.6 km/h 96% 0.2 mm 0 W/m2
02:36 0.7 °C 0.1 °C 1033.9 hPa West 1.4 km/h 8 km/h 96% 0.2 mm 0 W/m2
02:41 0.7 °C 0.1 °C 1033.9 hPa East 3.2 km/h 4.8 km/h 96% 0.0 mm 0 W/m2
02:46 0.7 °C 0.1 °C 1033.9 hPa Calm   8 km/h 96% 0.0 mm 0 W/m2
02:51 0.7 °C 0.1 °C 1033.9 hPa WSW 1.4 km/h 1.6 km/h 96% 0.0 mm 0 W/m2
02:56 0.7 °C 0.1 °C 1033.9 hPa Calm   3.2 km/h 96% 0.0 mm 0 W/m2
03:01 0.7 °C 0.1 °C 1033.9 hPa SSE 1.4 km/h 1.6 km/h 96% 0.0 mm 0 W/m2
03:06 0.7 °C 0.1 °C 1033.9 hPa West 1.4 km/h 1.6 km/h 96% 0.0 mm 0 W/m2
03:11 0.7 °C 0.1 °C 1033.9 hPa Calm   1.6 km/h 96% 0.0 mm 0 W/m2
03:16 0.7 °C 0.1 °C 1033.9 hPa West 3.2 km/h 9.7 km/h 96% 0.0 mm 0 W/m2
03:21 0.7 °C 0.1 °C 1033.9 hPa NNW 3.2 km/h 6.4 km/h 96% 0.0 mm 0 W/m2
03:26 0.7 °C 0.1 °C 1033.9 hPa WNW 3.2 km/h 4.8 km/h 96% 0.0 mm 0 W/m2
03:31 0.7 °C 0.1 °C 1033.9 hPa West 3.2 km/h 4.8 km/h 96% 0.0 mm 0 W/m2
03:36 0.7 °C 0.1 °C 1033.9 hPa West 3.2 km/h 4.8 km/h 96% 0.0 mm 0 W/m2
03:41 0.7 °C 0.1 °C 1033.9 hPa Calm   4.8 km/h 96% 0.0 mm 0 W/m2
03:46 0.7 °C 0.1 °C 1033.9 hPa West 1.4 km/h 6.4 km/h 96% 0.0 mm 0 W/m2
03:51 0.7 °C 0.1 °C 1033.9 hPa WNW 3.2 km/h 4.8 km/h 96% 0.0 mm 0 W/m2
03:56 0.7 °C 0.1 °C 1033.9 hPa NW 6.4 km/h 8 km/h 96% 0.0 mm 0 W/m2
04:01 0.7 °C 0.1 °C 1033.9 hPa West 1.4 km/h 6.4 km/h 96% 0.0 mm 0 W/m2
04:06 0.7 °C 0.1 °C 1033.9 hPa WNW 4.7 km/h 6.4 km/h 96% 0.0 mm 0 W/m2
04:11 0.7 °C 0.1 °C 1033.9 hPa NNW 7.9 km/h 9.7 km/h 96% 0.0 mm 0 W/m2
04:16 0.7 °C 0.1 °C 1033.9 hPa NNW 1.4 km/h 4.8 km/h 96% 0.0 mm 0 W/m2
04:21 0.7 °C 0.1 °C 1033.9 hPa Calm   3.2 km/h 96% 0.0 mm 0 W/m2
04:26 0.7 °C 0.1 °C 1033.5 hPa Calm   3.2 km/h 96% 0.0 mm 0 W/m2
04:31 0.7 °C 0.1 °C 1033.5 hPa NW 3.2 km/h 3.2 km/h 96% 0.0 mm 0 W/m2
04:36 0.7 °C 0.1 °C 1033.5 hPa East 3.2 km/h 4.8 km/h 96% 0.0 mm 0 W/m2
04:41 0.7 °C 0.1 °C 1033.5 hPa East 4.7 km/h 9.7 km/h 96% 0.0 mm 0 W/m2
04:46 0.8 °C 0.2 °C 1033.9 hPa Calm   4.8 km/h 96% 0.0 mm 0 W/m2
04:51 0.8 °C 0.2 °C 1033.9 hPa Calm   3.2 km/h 96% 0.0 mm 0 W/m2
04:56 0.8 °C 0.2 °C 1033.9 hPa East 3.2 km/h 3.2 km/h 96% 0.0 mm 0 W/m2
05:01 0.8 °C 0.2 °C 1033.9 hPa ENE 1.4 km/h 4.8 km/h 96% 0.0 mm 0 W/m2
05:06 0.8 °C 0.2 °C 1034.2 hPa ENE 1.4 km/h 3.2 km/h 96% 0.0 mm 0 W/m2
05:12 0.9 °C 0.3 °C 1033.9 hPa NE 1.4 km/h 1.6 km/h 96% 0.0 mm 0 W/m2
05:17 0.9 °C 0.3 °C 1033.9 hPa NE 6.4 km/h 8 km/h 96% 0.0 mm 0 W/m2
05:22 0.9 °C 0.3 °C 1034.2 hPa ENE 1.4 km/h 3.2 km/h 96% 0.0 mm 0 W/m2
05:27 0.9 °C 0.3 °C 1033.9 hPa Calm   1.6 km/h 96% 0.0 mm 0 W/m2
05:32 0.9 °C 0.3 °C 1033.9 hPa NNE 3.2 km/h 3.2 km/h 96% 0.0 mm 0 W/m2
05:37 0.9 °C 0.3 °C 1033.9 hPa Calm   4.8 km/h 96% 0.0 mm 0 W/m2
05:42 0.9 °C 0.3 °C 1033.9 hPa ENE 1.4 km/h 3.2 km/h 96% 0.0 mm 0 W/m2
05:47 0.9 °C 0.3 °C 1033.9 hPa West 4.7 km/h 4.8 km/h 96% 0.0 mm 0 W/m2
05:52 0.9 °C 0.3 °C 1033.9 hPa Calm   6.4 km/h 96% 0.0 mm 0 W/m2
05:57 0.9 °C 0.3 °C 1033.9 hPa ESE 1.4 km/h 3.2 km/h 96% 0.0 mm 0 W/m2
06:02 0.9 °C 0.3 °C 1033.9 hPa ESE 1.4 km/h 6.4 km/h 96% 0.0 mm 0 W/m2
06:07 0.9 °C 0.3 °C 1033.9 hPa Calm   3.2 km/h 96% 0.0 mm 0 W/m2
06:12 0.9 °C 0.3 °C 1033.9 hPa West 4.7 km/h 8 km/h 96% 0.0 mm 0 W/m2
06:17 0.9 °C 0.3 °C 1033.9 hPa ENE 6.4 km/h 6.4 km/h 96% 0.0 mm 0 W/m2
06:22 0.9 °C 0.3 °C 1033.9 hPa Calm   8 km/h 96% 0.0 mm 0 W/m2
06:27 0.9 °C 0.3 °C 1033.9 hPa NNW 1.4 km/h 3.2 km/h 96% 0.0 mm 0 W/m2
06:32 0.9 °C 0.3 °C 1033.9 hPa NE 1.4 km/h 3.2 km/h 96% 0.0 mm 0 W/m2
06:37 1 °C 0.4 °C 1033.9 hPa Calm   12.9 km/h 96% 0.0 mm 0 W/m2
06:42 0.9 °C 0.3 °C 1033.9 hPa ENE 1.4 km/h 12.9 km/h 96% 0.0 mm 0 W/m2
06:47 1 °C 0.4 °C 1033.9 hPa Calm   3.2 km/h 96% 0.0 mm 0 W/m2
06:52 1 °C 0.4 °C 1033.9 hPa Calm   12.9 km/h 96% 0.0 mm 0 W/m2
06:57 1 °C 0.4 °C 1034.2 hPa Calm   6.4 km/h 96% 0.0 mm 0 W/m2
07:02 1 °C 0.4 °C 1033.9 hPa NW 4.7 km/h 11.3 km/h 96% 0.0 mm 0 W/m2
07:07 1 °C 0.4 °C 1034.2 hPa NW 4.7 km/h 6.4 km/h 96% 0.0 mm 0 W/m2
07:12 1 °C 0.4 °C 1033.9 hPa West 3.2 km/h 11.3 km/h 96% 0.0 mm 0 W/m2
07:17 1 °C 0.4 °C 1033.9 hPa WNW 6.4 km/h 9.7 km/h 96% 0.0 mm 0 W/m2
07:22 1 °C 0.4 °C 1033.9 hPa WNW 4.7 km/h 9.7 km/h 96% 0.0 mm 0 W/m2
07:27 1 °C 0.4 °C 1033.9 hPa WSW 3.2 km/h 4.8 km/h 96% 0.0 mm 0 W/m2
07:32 1 °C 0.4 °C 1033.9 hPa WNW 7.9 km/h 16.1 km/h 96% 0.0 mm 0 W/m2
07:37 1 °C 0.4 °C 1033.9 hPa WSW 4.7 km/h 12.9 km/h 96% 0.0 mm 0 W/m2
07:42 1 °C 0.4 °C 1034.2 hPa WNW 6.4 km/h 16.1 km/h 96% 0.0 mm 0 W/m2
07:47 1 °C 0.4 °C 1033.9 hPa West 1.4 km/h 14.5 km/h 96% 0.0 mm 0 W/m2
07:52 1 °C 0.4 °C 1034.2 hPa NW 4.7 km/h 16.1 km/h 96% 0.0 mm 0 W/m2
07:57 1.1 °C 0.5 °C 1034.2 hPa NW 1.4 km/h 11.3 km/h 96% 0.0 mm 0 W/m2
08:02 1.1 °C 0.5 °C 1033.9 hPa WNW 9.7 km/h 14.5 km/h 96% 0.0 mm 0 W/m2
08:07 1.1 °C 0.5 °C 1034.2 hPa NNW 3.2 km/h 9.7 km/h 96% 0.0 mm 0 W/m2
08:12 1.1 °C 0.5 °C 1034.5 hPa NW 3.2 km/h 3.2 km/h 96% 0.0 mm 0 W/m2
08:17 1.1 °C 0.5 °C 1034.5 hPa WNW 4.7 km/h 8 km/h 96% 0.0 mm 0 W/m2
08:22 1.1 °C 0.5 °C 1034.9 hPa WNW 6.4 km/h 14.5 km/h 96% 0.0 mm 0 W/m2
08:27 1.1 °C 0.5 °C 1035.2 hPa West 6.4 km/h 12.9 km/h 96% 0.0 mm 0 W/m2
08:32 1.1 °C 0.5 °C 1034.9 hPa ESE 1.4 km/h 6.4 km/h 96% 0.0 mm 0 W/m2
08:37 1.1 °C 0.5 °C 1034.9 hPa WNW 3.2 km/h 6.4 km/h 96% 0.0 mm 0 W/m2
08:42 1.2 °C 0.6 °C 1034.9 hPa West 9.7 km/h 11.3 km/h 96% 0.0 mm 0 W/m2
08:47 1.2 °C 0.6 °C 1034.9 hPa West 1.4 km/h 4.8 km/h 96% 0.0 mm 5 W/m2
08:52 1.2 °C 0.6 °C 1035.2 hPa NW 3.2 km/h 6.4 km/h 96% 0.0 mm 5 W/m2
08:57 1.2 °C 0.6 °C 1035.2 hPa West 9.7 km/h 9.7 km/h 96% 0.0 mm 7 W/m2
09:02 1.3 °C 0.7 °C 1035.2 hPa SW 6.4 km/h 9.7 km/h 96% 0.0 mm 9 W/m2
09:07 1.3 °C 0.7 °C 1035.2 hPa NW 4.7 km/h 6.4 km/h 96% 0.0 mm 12 W/m2
09:12 1.3 °C 0.7 °C 1035.2 hPa NW 1.4 km/h 12.9 km/h 96% 0.0 mm 14 W/m2
09:17 1.3 °C 0.7 °C 1035.2 hPa NNW 3.2 km/h 6.4 km/h 96% 0.0 mm 23 W/m2
09:22 1.3 °C 0.7 °C 1035.2 hPa WNW 1.4 km/h 12.9 km/h 96% 0.0 mm 28 W/m2
09:27 1.4 °C 0.8 °C 1035.6 hPa NNW 4.7 km/h 4.8 km/h 96% 0.0 mm 28 W/m2
09:32 1.4 °C 0.8 °C 1035.6 hPa NW 1.4 km/h 6.4 km/h 96% 0.0 mm 28 W/m2
09:37 1.4 °C 0.7 °C 1035.6 hPa WNW 1.4 km/h 1.6 km/h 95% 0.0 mm 28 W/m2
09:42 1.5 °C 0.8 °C 1035.6 hPa NNE 1.4 km/h 4.8 km/h 95% 0.0 mm 23 W/m2
09:47 1.5 °C 0.9 °C 1035.6 hPa NNW 6.4 km/h 6.4 km/h 96% 0.0 mm 19 W/m2
09:52 1.6 °C 1 °C 1035.6 hPa NNW 1.4 km/h 6.4 km/h 96% 0.0 mm 21 W/m2
09:57 1.6 °C 1 °C 1035.2 hPa WNW 3.2 km/h 8 km/h 96% 0.0 mm 25 W/m2
10:02 1.6 °C 1 °C 1035.2 hPa NNW 3.2 km/h 3.2 km/h 96% 0.0 mm 30 W/m2
10:07 1.6 °C 0.9 °C 1035.6 hPa WNW 7.9 km/h 9.7 km/h 95% 0.0 mm 40 W/m2
10:12 1.6 °C 0.9 °C 1035.6 hPa WSW 6.4 km/h 17.7 km/h 95% 0.0 mm 62 W/m2
10:17 1.7 °C 1 °C 1035.6 hPa West 9.7 km/h 14.5 km/h 95% 0.0 mm 72 W/m2
10:22 1.8 °C 1.1 °C 1035.6 hPa WNW 16.3 km/h 17.7 km/h 95% 0.0 mm 83 W/m2
10:27 1.8 °C 1.1 °C 1035.6 hPa WNW 4.7 km/h 11.3 km/h 95% 0.0 mm 86 W/m2
10:32 1.9 °C 1.2 °C 1035.2 hPa WNW 7.9 km/h 17.7 km/h 95% 0.0 mm 67 W/m2
10:37 1.9 °C 1.2 °C 1035.6 hPa West 9.7 km/h 11.3 km/h 95% 0.0 mm 62 W/m2
10:42 1.9 °C 1.2 °C 1035.2 hPa West 9.7 km/h 12.9 km/h 95% 0.0 mm 77 W/m2
10:47 2 °C 1.3 °C 1035.6 hPa WNW 4.7 km/h 12.9 km/h 95% 0.0 mm 70 W/m2
10:52 2 °C 1.3 °C 1035.6 hPa NW 7.9 km/h 11.3 km/h 95% 0.0 mm 53 W/m2
10:57 2 °C 1.3 °C 1035.9 hPa WNW 11.1 km/h 12.9 km/h 95% 0.0 mm 42 W/m2
11:02 2.1 °C 1.4 °C 1035.9 hPa West 4.7 km/h 11.3 km/h 95% 0.0 mm 42 W/m2
11:07 2.1 °C 1.4 °C 1036.2 hPa NW 3.2 km/h 4.8 km/h 95% 0.0 mm 58 W/m2
11:12 2.1 °C 1.4 °C 1036.2 hPa West 4.7 km/h 12.9 km/h 95% 0.0 mm 51 W/m2
11:17 2.1 °C 1.4 °C 1035.9 hPa West 3.2 km/h 12.9 km/h 95% 0.0 mm 70 W/m2
11:22 2.2 °C 1.5 °C 1036.2 hPa WNW 6.4 km/h 16.1 km/h 95% 0.0 mm 56 W/m2
11:27 2.2 °C 1.5 °C 1036.2 hPa NW 4.7 km/h 11.3 km/h 95% 0.0 mm 60 W/m2
11:32 2.2 °C 1.5 °C 1036.2 hPa NW 3.2 km/h 9.7 km/h 95% 0.0 mm 65 W/m2
11:37 2.3 °C 1.6 °C 1035.9 hPa WNW 7.9 km/h 11.3 km/h 95% 0.0 mm 98 W/m2
11:42 2.3 °C 1.6 °C 1036.2 hPa NW 6.4 km/h 9.7 km/h 95% 0.0 mm 81 W/m2
11:47 2.4 °C 1.7 °C 1036.2 hPa WNW 3.2 km/h 9.7 km/h 95% 0.0 mm 93 W/m2
11:52 2.4 °C 1.7 °C 1036.2 hPa WSW 9.7 km/h 14.5 km/h 95% 0.0 mm 88 W/m2
11:57 2.4 °C 1.7 °C 1036.2 hPa West 6.4 km/h 6.4 km/h 95% 0.0 mm 90 W/m2
12:02 2.5 °C 1.8 °C 1036.6 hPa NW 4.7 km/h 14.5 km/h 95% 0.0 mm 86 W/m2
12:07 2.6 °C 1.9 °C 1036.6 hPa WNW 7.9 km/h 11.3 km/h 95% 0.0 mm 95 W/m2
12:12 2.7 °C 2 °C 1036.6 hPa West 3.2 km/h 12.9 km/h 95% 0.0 mm 105 W/m2
12:17 2.7 °C 2 °C 1036.2 hPa NW 6.4 km/h 11.3 km/h 95% 0.0 mm 104 W/m2
12:23 2.7 °C 2 °C 1036.2 hPa West 6.4 km/h 14.5 km/h 95% 0.0 mm 104 W/m2
12:28 2.8 °C 2.1 °C 1036.2 hPa WNW 6.4 km/h 12.9 km/h 95% 0.0 mm 105 W/m2
12:33 2.8 °C 2.1 °C 1036.2 hPa WNW 6.4 km/h 14.5 km/h 95% 0.0 mm 114 W/m2
12:38 2.8 °C 2.1 °C 1036.2 hPa NW 6.4 km/h 12.9 km/h 95% 0.0 mm 105 W/m2
12:43 2.8 °C 1.9 °C 1036.2 hPa West 9.7 km/h 16.1 km/h 94% 0.0 mm 107 W/m2
12:48 2.9 °C 2.2 °C 1035.9 hPa West 3.2 km/h 8 km/h 95% 0.0 mm 109 W/m2
12:53 2.9 °C 2.2 °C 1035.9 hPa WNW 4.7 km/h 9.7 km/h 95% 0.0 mm 113 W/m2
12:58 2.9 °C 2.2 °C 1035.9 hPa NW 7.9 km/h 8 km/h 95% 0.0 mm 105 W/m2
13:03 3 °C 2.1 °C 1035.9 hPa West 3.2 km/h 12.9 km/h 94% 0.0 mm 83 W/m2
13:08 3.1 °C 2.2 °C 1035.6 hPa NNW 6.4 km/h 11.3 km/h 94% 0.0 mm 77 W/m2
13:13 3.1 °C 2.2 °C 1035.6 hPa NW 3.2 km/h 12.9 km/h 94% 0.0 mm 77 W/m2
13:18 3.1 °C 2.4 °C 1036.2 hPa West 3.2 km/h 11.3 km/h 95% 0.0 mm 62 W/m2
13:23 3.2 °C 2.5 °C 1036.2 hPa WNW 3.2 km/h 6.4 km/h 95% 0.0 mm 62 W/m2
13:28 3.2 °C 2.5 °C 1036.2 hPa WSW 6.4 km/h 12.9 km/h 95% 0.0 mm 65 W/m2
13:33 3.2 °C 2.5 °C 1036.2 hPa West 3.2 km/h 11.3 km/h 95% 0.0 mm 67 W/m2
13:38 3.2 °C 2.5 °C 1036.2 hPa WSW 3.2 km/h 12.9 km/h 95% 0.0 mm 74 W/m2
13:43 3.2 °C 2.5 °C 1036.2 hPa WNW 6.4 km/h 12.9 km/h 95% 0.0 mm 70 W/m2
13:48 3.2 °C 2.5 °C 1036.2 hPa NW 3.2 km/h 4.8 km/h 95% 0.0 mm 54 W/m2
13:53 3.2 °C 2.5 °C 1036.2 hPa WNW 4.7 km/h 12.9 km/h 95% 0.0 mm 58 W/m2
13:58 3.2 °C 2.5 °C 1036.2 hPa West 6.4 km/h 11.3 km/h 95% 0.0 mm 81 W/m2
14:03 3.2 °C 2.5 °C 1036.2 hPa WSW 4.7 km/h 9.7 km/h 95% 0.0 mm 69 W/m2
14:08 3.3 °C 2.6 °C 1035.9 hPa WSW 6.4 km/h 12.9 km/h 95% 0.0 mm 69 W/m2
14:13 3.3 °C 2.6 °C 1035.9 hPa WSW 7.9 km/h 11.3 km/h 95% 0.0 mm 60 W/m2
14:18 3.3 °C 2.6 °C 1035.6 hPa WNW 7.9 km/h 11.3 km/h 95% 0.0 mm 58 W/m2
14:23 3.3 °C 2.6 °C 1035.9 hPa WNW 7.9 km/h 12.9 km/h 95% 0.0 mm 58 W/m2
14:28 3.3 °C 2.6 °C 1035.9 hPa WNW 9.7 km/h 11.3 km/h 95% 0.0 mm 58 W/m2
14:33 3.3 °C 2.6 °C 1035.9 hPa NW 4.7 km/h 9.7 km/h 95% 0.0 mm 62 W/m2
14:38 3.4 °C 2.7 °C 1036.2 hPa West 3.2 km/h 11.3 km/h 95% 0.0 mm 77 W/m2
14:43 3.4 °C 2.7 °C 1035.9 hPa WNW 4.7 km/h 9.7 km/h 95% 0.0 mm 79 W/m2
14:48 3.4 °C 2.7 °C 1035.9 hPa WNW 6.4 km/h 14.5 km/h 95% 0.0 mm 72 W/m2
14:53 3.3 °C 2.6 °C 1035.9 hPa West 9.7 km/h 14.5 km/h 95% 0.0 mm 97 W/m2
14:58 3.4 °C 2.7 °C 1035.6 hPa West 11.1 km/h 20.9 km/h 95% 0.0 mm 79 W/m2
15:03 3.4 °C 2.7 °C 1035.6 hPa NW 4.7 km/h 12.9 km/h 95% 0.0 mm 67 W/m2
15:08 3.5 °C 2.8 °C 1035.6 hPa West 11.1 km/h 20.9 km/h 95% 0.0 mm 86 W/m2
15:13 3.5 °C 2.8 °C 1035.6 hPa WNW 7.9 km/h 16.1 km/h 95% 0.0 mm 72 W/m2
15:18 3.5 °C 2.8 °C 1035.6 hPa West 13 km/h 19.3 km/h 95% 0.0 mm 77 W/m2
15:23 3.6 °C 2.9 °C 1035.9 hPa WNW 6.4 km/h 16.1 km/h 95% 0.0 mm 69 W/m2
15:28 3.6 °C 2.9 °C 1035.9 hPa West 6.4 km/h 14.5 km/h 95% 0.0 mm 69 W/m2
15:33 3.6 °C 2.9 °C 1035.6 hPa WSW 4.7 km/h 12.9 km/h 95% 0.0 mm 53 W/m2
15:38 3.6 °C 2.9 °C 1035.9 hPa NW 7.9 km/h 20.9 km/h 95% 0.0 mm 69 W/m2
15:43 3.6 °C 2.9 °C 1035.9 hPa WNW 4.7 km/h 17.7 km/h 95% 0.0 mm 63 W/m2
15:48 3.7 °C 3 °C 1035.9 hPa West 4.7 km/h 14.5 km/h 95% 0.0 mm 58 W/m2
15:53 3.7 °C 3 °C 1035.9 hPa West 13 km/h 17.7 km/h 95% 0.0 mm 56 W/m2
15:58 3.7 °C 3 °C 1035.9 hPa WNW 6.4 km/h 19.3 km/h 95% 0.0 mm 54 W/m2
16:03 3.8 °C 3.1 °C 1035.9 hPa WSW 7.9 km/h 16.1 km/h 95% 0.0 mm 42 W/m2
16:08 3.8 °C 3.1 °C 1035.6 hPa WNW 6.4 km/h 17.7 km/h 95% 0.0 mm 39 W/m2
16:13 3.8 °C 2.9 °C 1035.9 hPa WNW 9.7 km/h 12.9 km/h 94% 0.0 mm 23 W/m2
16:18 3.9 °C 3.2 °C 1035.9 hPa WNW 4.7 km/h 17.7 km/h 95% 0.0 mm 19 W/m2
16:23 3.9 °C 3 °C 1035.9 hPa NW 11.1 km/h 16.1 km/h 94% 0.0 mm 16 W/m2
16:28 3.9 °C 3 °C 1036.2 hPa WNW 3.2 km/h 9.7 km/h 94% 0.0 mm 11 W/m2
16:33 3.9 °C 3 °C 1036.2 hPa WSW 4.7 km/h 11.3 km/h 94% 0.0 mm 9 W/m2
16:38 3.9 °C 3 °C 1035.9 hPa WNW 3.2 km/h 4.8 km/h 94% 0.0 mm 7 W/m2
16:43 3.9 °C 3 °C 1036.2 hPa NW 1.4 km/h 6.4 km/h 94% 0.0 mm 7 W/m2
16:48 3.9 °C 3 °C 1036.2 hPa WNW 6.4 km/h 12.9 km/h 94% 0.0 mm 5 W/m2
16:53 3.9 °C 3 °C 1035.9 hPa WNW 13 km/h 12.9 km/h 94% 0.0 mm 5 W/m2
16:58 3.9 °C 3 °C 1035.9 hPa West 4.7 km/h 16.1 km/h 94% 0.0 mm 5 W/m2
17:03 3.9 °C 3 °C 1035.9 hPa WNW 4.7 km/h 12.9 km/h 94% 0.0 mm 0 W/m2
17:08 3.9 °C 3 °C 1035.9 hPa WNW 4.7 km/h 8 km/h 94% 0.0 mm 0 W/m2
17:13 3.9 °C 3 °C 1036.2 hPa WNW 3.2 km/h 6.4 km/h 94% 0.0 mm 0 W/m2
17:18 3.8 °C 2.9 °C 1036.2 hPa NW 4.7 km/h 4.8 km/h 94% 0.0 mm 0 W/m2
17:23 3.8 °C 2.9 °C 1036.2 hPa NW 1.4 km/h 8 km/h 94% 0.0 mm 0 W/m2
17:28 3.9 °C 3.2 °C 1036.2 hPa SSW 4.7 km/h 8 km/h 95% 0.0 mm 0 W/m2
17:33 3.9 °C 3.2 °C 1036.2 hPa West 4.7 km/h 4.8 km/h 95% 0.0 mm 0 W/m2
17:38 3.9 °C 3.2 °C 1036.2 hPa West 3.2 km/h 8 km/h 95% 0.0 mm 0 W/m2
17:43 3.9 °C 3.2 °C 1036.2 hPa WNW 3.2 km/h 3.2 km/h 95% 0.0 mm 0 W/m2
17:48 3.9 °C 3.2 °C 1036.6 hPa WSW 3.2 km/h 11.3 km/h 95% 0.0 mm 0 W/m2
17:53 3.9 °C 3.2 °C 1036.6 hPa West 4.7 km/h 11.3 km/h 95% 0.0 mm 0 W/m2
17:58 3.9 °C 3.2 °C 1036.6 hPa WNW 6.4 km/h 11.3 km/h 95% 0.0 mm 0 W/m2
18:03 3.9 °C 3.2 °C 1036.6 hPa WNW 3.2 km/h 12.9 km/h 95% 0.0 mm 0 W/m2
18:08 4 °C 3.3 °C 1036.6 hPa WNW 4.7 km/h 11.3 km/h 95% 0.0 mm 0 W/m2
18:13 4.1 °C 3.2 °C 1036.6 hPa West 9.7 km/h 16.1 km/h 94% 0.0 mm 0 W/m2
18:18 4.1 °C 3.2 °C 1036.6 hPa West 9.7 km/h 16.1 km/h 94% 0.0 mm 0 W/m2
18:23 4.1 °C 3.2 °C 1036.6 hPa West 4.7 km/h 9.7 km/h 94% 0.0 mm 0 W/m2
18:28 4.2 °C 3.3 °C 1036.6 hPa NW 6.4 km/h 6.4 km/h 94% 0.0 mm 0 W/m2
18:33 4.2 °C 3.3 °C 1036.6 hPa WSW 4.7 km/h 11.3 km/h 94% 0.0 mm 0 W/m2
18:38 4.2 °C 3.3 °C 1036.9 hPa West 1.4 km/h 6.4 km/h 94% 0.0 mm 0 W/m2
18:43 4.2 °C 3.3 °C 1036.9 hPa NW 4.7 km/h 11.3 km/h 94% 0.0 mm 0 W/m2
18:48 4.2 °C 3.3 °C 1036.9 hPa WSW 3.2 km/h 4.8 km/h 94% 0.0 mm 0 W/m2
18:53 4.2 °C 3.3 °C 1036.9 hPa WSW 6.4 km/h 12.9 km/h 94% 0.0 mm 0 W/m2
18:58 4.2 °C 3.3 °C 1036.9 hPa West 3.2 km/h 12.9 km/h 94% 0.0 mm 0 W/m2
19:03 4.2 °C 3.3 °C 1036.9 hPa NW 3.2 km/h 6.4 km/h 94% 0.0 mm 0 W/m2
19:08 4.2 °C 3.3 °C 1036.9 hPa West 1.4 km/h 11.3 km/h 94% 0.0 mm 0 W/m2
19:13 4.2 °C 3.3 °C 1036.9 hPa WNW 3.2 km/h 9.7 km/h 94% 0.0 mm 0 W/m2
19:18 4.3 °C 3.4 °C 1037.2 hPa NW 3.2 km/h 6.4 km/h 94% 0.0 mm 0 W/m2
19:23 4.3 °C 3.4 °C 1036.9 hPa West 1.4 km/h 9.7 km/h 94% 0.0 mm 0 W/m2
19:28 4.2 °C 3.3 °C 1036.9 hPa West 9.7 km/h 11.3 km/h 94% 0.0 mm 0 W/m2
19:33 4.2 °C 3.3 °C 1036.6 hPa West 3.2 km/h 6.4 km/h 94% 0.0 mm 0 W/m2
19:38 4.2 °C 3.3 °C 1036.6 hPa West 9.7 km/h 11.3 km/h 94% 0.0 mm 0 W/m2
19:43 4.2 °C 3.3 °C 1036.6 hPa West 4.7 km/h 4.8 km/h 94% 0.0 mm 0 W/m2
19:48 4.2 °C 3.3 °C 1036.6 hPa West 3.2 km/h 6.4 km/h 94% 0.0 mm 0 W/m2
19:53 4.2 °C 3.3 °C 1036.6 hPa SW 3.2 km/h 6.4 km/h 94% 0.0 mm 0 W/m2
19:58 4.2 °C 3.3 °C 1036.6 hPa WNW 4.7 km/h 6.4 km/h 94% 0.0 mm 0 W/m2
20:03 4.2 °C 3.3 °C 1036.9 hPa NW 3.2 km/h 6.4 km/h 94% 0.0 mm 0 W/m2
20:08 4.2 °C 3.3 °C 1036.9 hPa West 4.7 km/h 6.4 km/h 94% 0.0 mm 0 W/m2
20:13 4.2 °C 3.3 °C 1036.9 hPa Calm   4.8 km/h 94% 0.0 mm 0 W/m2
20:18 4.2 °C 3.3 °C 1036.9 hPa West 1.4 km/h 4.8 km/h 94% 0.0 mm 0 W/m2
20:23 4.2 °C 3.3 °C 1036.9 hPa West 3.2 km/h 4.8 km/h 94% 0.0 mm 0 W/m2
20:28 4.2 °C 3.3 °C 1036.9 hPa North 1.4 km/h 4.8 km/h 94% 0.0 mm 0 W/m2
20:34 4.2 °C 3.3 °C 1037.2 hPa Calm   4.8 km/h 94% 0.0 mm 0 W/m2
20:39 4.2 °C 3.3 °C 1037.2 hPa WNW 1.4 km/h 4.8 km/h 94% 0.0 mm 0 W/m2
20:44 4.2 °C 3.3 °C 1037.2 hPa WSW 1.4 km/h 4.8 km/h 94% 0.0 mm 0 W/m2
20:49 4.2 °C 3.3 °C 1037.2 hPa West 3.2 km/h 6.4 km/h 94% 0.0 mm 0 W/m2
20:54 4.3 °C 3.4 °C 1037.2 hPa West 4.7 km/h 4.8 km/h 94% 0.0 mm 0 W/m2
20:59 4.3 °C 3.4 °C 1037.2 hPa WNW 1.4 km/h 6.4 km/h 94% 0.0 mm 0 W/m2
21:04 4.3 °C 3.4 °C 1037.2 hPa West 6.4 km/h 6.4 km/h 94% 0.0 mm 0 W/m2
21:09 4.3 °C 3.4 °C 1037.2 hPa WSW 4.7 km/h 6.4 km/h 94% 0.0 mm 0 W/m2
21:14 4.4 °C 3.5 °C 1037.2 hPa West 3.2 km/h 9.7 km/h 94% 0.0 mm 0 W/m2
21:19 4.4 °C 3.5 °C 1037.2 hPa WNW 3.2 km/h 4.8 km/h 94% 0.0 mm 0 W/m2
21:24 4.4 °C 3.5 °C 1037.2 hPa WNW 1.4 km/h 4.8 km/h 94% 0.0 mm 0 W/m2
21:29 4.4 °C 3.4 °C 1037.2 hPa WNW 4.7 km/h 11.3 km/h 93% 0.0 mm 0 W/m2
21:34 4.4 °C 3.4 °C 1037.6 hPa NW 3.2 km/h 3.2 km/h 93% 0.0 mm 0 W/m2
21:39 4.4 °C 3.4 °C 1037.6 hPa Calm     93% 0.0 mm 0 W/m2
21:44 4.4 °C 3.4 °C 1037.6 hPa Calm   3.2 km/h 93% 0.0 mm 0 W/m2
21:49 4.3 °C 3.4 °C 1037.6 hPa WNW 1.4 km/h 3.2 km/h 94% 0.0 mm 0 W/m2
21:54 4.3 °C 3.4 °C 1037.6 hPa West 1.4 km/h 6.4 km/h 94% 0.0 mm 0 W/m2
21:59 4.2 °C 3.3 °C 1037.6 hPa West 4.7 km/h 11.3 km/h 94% 0.0 mm 0 W/m2
22:04 4.2 °C 3.3 °C 1037.6 hPa WNW 1.4 km/h 6.4 km/h 94% 0.0 mm 0 W/m2
22:09 4.1 °C 3.2 °C 1037.6 hPa WNW 3.2 km/h 9.7 km/h 94% 0.0 mm 0 W/m2
22:14 4.1 °C 3.2 °C 1037.6 hPa WNW 3.2 km/h 4.8 km/h 94% 0.0 mm 0 W/m2
22:19 4.1 °C 3.2 °C 1037.2 hPa WNW 6.4 km/h 12.9 km/h 94% 0.0 mm 0 W/m2
22:24 4.1 °C 3.2 °C 1037.6 hPa WNW 1.4 km/h 4.8 km/h 94% 0.0 mm 0 W/m2
22:29 4.1 °C 3.2 °C 1037.6 hPa West 4.7 km/h 12.9 km/h 94% 0.0 mm 0 W/m2
22:34 4.2 °C 3.5 °C 1037.6 hPa West 6.4 km/h 12.9 km/h 95% 0.0 mm 0 W/m2
22:39 4.2 °C 3.3 °C 1037.6 hPa West 4.7 km/h 6.4 km/h 94% 0.0 mm 0 W/m2
22:44 4.2 °C 3.3 °C 1037.6 hPa West 9.7 km/h 9.7 km/h 94% 0.0 mm 0 W/m2
22:49 4.1 °C 3.2 °C 1037.6 hPa WNW 1.4 km/h 6.4 km/h 94% 0.0 mm 0 W/m2
22:54 4.2 °C 3.3 °C 1037.6 hPa NW 1.4 km/h 4.8 km/h 94% 0.0 mm 0 W/m2
22:59 4.2 °C 3.3 °C 1037.2 hPa WNW 1.4 km/h 4.8 km/h 94% 0.0 mm 0 W/m2
23:04 4.2 °C 3.3 °C 1037.6 hPa NW 4.7 km/h 6.4 km/h 94% 0.0 mm 0 W/m2
23:09 4.3 °C 3.4 °C 1037.6 hPa NW 3.2 km/h 9.7 km/h 94% 0.0 mm 0 W/m2
23:14 4.3 °C 3.4 °C 1037.6 hPa West 3.2 km/h 6.4 km/h 94% 0.0 mm 0 W/m2
23:19 4.3 °C 3.4 °C 1037.6 hPa WNW 1.4 km/h 8 km/h 94% 0.0 mm 0 W/m2
23:24 4.3 °C 3.4 °C 1037.2 hPa WNW 1.4 km/h 9.7 km/h 94% 0.0 mm 0 W/m2
23:29 4.3 °C 3.4 °C 1037.2 hPa WNW 1.4 km/h 3.2 km/h 94% 0.0 mm 0 W/m2
23:34 4.2 °C 3.3 °C 1037.2 hPa West 3.2 km/h 4.8 km/h 94% 0.0 mm 0 W/m2
23:39 4.2 °C 3.3 °C 1037.2 hPa WNW 4.7 km/h 4.8 km/h 94% 0.0 mm 0 W/m2
23:44 4.2 °C 3.3 °C 1037.2 hPa Calm   3.2 km/h 94% 0.0 mm 0 W/m2
23:49 4.1 °C 3.2 °C 1037.2 hPa West 3.2 km/h 6.4 km/h 94% 0.0 mm 0 W/m2
23:54 4.1 °C 3.2 °C 1037.6 hPa WNW 3.2 km/h 4.8 km/h 94% 0.0 mm 0 W/m2
23:59 4 °C 3.1 °C 1037.2 hPa West 1.4 km/h 6.4 km/h 94% 0.0 mm 0 W/m2
Juneau County Weather
Compliments of Weather Underground - 4 mb